Audubon, Illinois
Current Conditions -  °F | °C
As of 6:55 AM on Friday 24 Oct 2014 (Local Time) from KTAZ Reporting Station
Overcast Overcast  
Wind Chill: 11°   Ceiling: 400
Heat Index: 11°   Visibility: 7mi
Dew Point: 10°   Wind: 7mph
Humidity: 94%   Direction: 260°W
Pressure: 30.09"   Gusts: NA
Location:  39.3183°N, 89.2952°W
Report Text: KTAZ 241155Z AUTO 26006KT 7SM OVC004 11/10 A3009 RMK AO2
Loading
Personal Weather Stations






























Interactive Weather Map
Tropical Storm Tracking
New forecast layout! Learn more

10-Day Weather Forecast

Advertisements
Track Severe Weather on mobile